地図

経路データ

SID SEASON NUMBER BASIN SUBBASIN NAME ISO_TIME NATURE LAT LON WMO_WIND WMO_PRES WMO_AGENCY TRACK_TYPE DIST2LAND LANDFALL IFLAG USA_AGENCY USA_ATCF_ID USA_LAT USA_LON USA_RECORD USA_STATUS USA_WIND USA_PRES USA_SSHS USA_R34_NE USA_R34_SE USA_R34_SW USA_R34_NW USA_R50_NE USA_R50_SE USA_R50_SW USA_R50_NW USA_R64_NE USA_R64_SE USA_R64_SW USA_R64_NW USA_POCI USA_ROCI USA_RMW USA_EYE TOKYO_LAT TOKYO_LON TOKYO_GRADE TOKYO_WIND TOKYO_PRES TOKYO_R50_DIR TOKYO_R50_LONG TOKYO_R50_SHORT TOKYO_R30_DIR TOKYO_R30_LONG TOKYO_R30_SHORT TOKYO_LAND CMA_LAT CMA_LON CMA_CAT CMA_WIND CMA_PRES HKO_LAT HKO_LON HKO_CAT HKO_WIND HKO_PRES NEWDELHI_LAT NEWDELHI_LON NEWDELHI_GRADE NEWDELHI_WIND NEWDELHI_PRES NEWDELHI_CI NEWDELHI_DP NEWDELHI_POCI REUNION_LAT REUNION_LON REUNION_TYPE REUNION_WIND REUNION_PRES REUNION_TNUM REUNION_CI REUNION_RMW REUNION_R34_NE REUNION_R34_SE REUNION_R34_SW REUNION_R34_NW REUNION_R50_NE REUNION_R50_SE REUNION_R50_SW REUNION_R50_NW REUNION_R64_NE REUNION_R64_SE REUNION_R64_SW REUNION_R64_NW BOM_LAT BOM_LON BOM_TYPE BOM_WIND BOM_PRES BOM_TNUM BOM_CI BOM_RMW BOM_R34_NE BOM_R34_SE BOM_R34_SW BOM_R34_NW BOM_R50_NE BOM_R50_SE BOM_R50_SW BOM_R50_NW BOM_R64_NE BOM_R64_SE BOM_R64_SW BOM_R64_NW BOM_ROCI BOM_POCI BOM_EYE BOM_POS_METHOD BOM_PRES_METHOD NADI_LAT NADI_LON NADI_CAT NADI_WIND NADI_PRES WELLINGTON_LAT WELLINGTON_LON WELLINGTON_WIND WELLINGTON_PRES DS824_LAT DS824_LON DS824_STAGE DS824_WIND DS824_PRES TD9636_LAT TD9636_LON TD9636_STAGE TD9636_WIND TD9636_PRES TD9635_LAT TD9635_LON TD9635_WIND TD9635_PRES TD9635_ROCI NEUMANN_LAT NEUMANN_LON NEUMANN_CLASS NEUMANN_WIND NEUMANN_PRES MLC_LAT MLC_LON MLC_CLASS MLC_WIND MLC_PRES USA_GUST BOM_GUST BOM_GUST_PER REUNION_GUST REUNION_GUST_PER USA_SEAHGT USA_SEARAD_NE USA_SEARAD_SE USA_SEARAD_SW USA_SEARAD_NW STORM_SPEED STORM_DIR
1966326S10091 1967 112 SI WA BERYL 1966-11-21 16:00:00 NR -10.0000 91.0000 main 1276 1276 __________O___ -1 -10.0000 91.0000 1 10 0 0
1966326S10091 1967 112 SI WA BERYL 1966-11-21 18:00:00 TS -10.0028 90.9972 main 1276 1276 O_________P_O_ jtwc_sh SH031967 -10.0000 91.0000 15 -1 -10.0069 90.9931 1 11 -10.0000 91.0000 TC 0 0
1966326S10091 1967 112 SI WA BERYL 1966-11-21 21:00:00 TS -10.0020 90.9980 main 1276 1276 P_________P_P_ SH031967 -9.99250 91.0075 17 -1 -10.0210 90.9790 1 14 -9.99250 91.0075 TC 0 0
1966326S10091 1967 112 SI WA BERYL 1966-11-22 00:00:00 TS -10.0137 90.9863 main 1276 1276 O_________P_O_ jtwc_sh SH031967 -10.0000 91.0000 20 -1 -10.0445 90.9556 1 16 -10.0000 91.0000 TC 20 1 217
1966326S10091 1967 112 SI WA BERYL 1966-11-22 03:00:00 TS -10.0470 90.9530 main 1276 1276 P_________P_P_ SH031967 -10.0350 90.9650 20 -1 -10.0829 90.9171 1 19 -10.0350 90.9650 TC 20 1 230
1966326S10091 1967 112 SI WA BERYL 1966-11-22 04:00:00 TS -10.0650 90.9350 main 1291 1291 P_________O_P_ SH031967 -10.0533 90.9467 20 -1 -10.1000 90.9000 1 20 -10.0533 90.9467 TC 20 2 225
1966326S10091 1967 112 SI WA BERYL 1966-11-22 06:00:00 TS -10.1157 90.8843 main 1291 1291 O________OP_O_ jtwc_sh SH031967 -10.1000 90.9000 20 -1 -10.2000 90.8000 TC 15 1006 -10.1417 90.8583 1 19 -10.1000 90.9000 TC 20 2 225
1966326S10091 1967 112 SI WA BERYL 1966-11-22 09:00:00 TS -10.2021 90.7951 main 1307 1307 P________PP_P_ SH031967 -10.1850 90.8150 17 -1 -10.2633 90.7122 TC 16 1005 -10.2229 90.7770 1 17 -10.1850 90.8150 TC 17 2 203
1966326S10091 1967 112 SI WA BERYL 1966-11-22 12:00:00 TS -10.2824 90.8167 main 1315 1315 O________PP_O_ jtwc_sh SH031967 -10.3000 90.7000 15 -1 -10.3413 90.6195 TC 17 1005 -10.3266 90.6732 1 16 -10.3000 90.7000 TC 15 2 208
1966326S10091 1967 112 SI WA BERYL 1966-11-22 15:00:00 TS -10.3732 90.7024 main 1331 1331 P________PP_P_ SH031967 -10.4350 90.5575 15 -1 -10.4487 90.5171 TC 18 1005 -10.4529 90.5471 1 15 -10.4350 90.5575 TC 15 3 232
1966326S10091 1967 112 SI WA BERYL 1966-11-22 16:00:00 TS -10.3889 90.6789 main 1331 1331 P________PO_P_ SH031967 -10.4867 90.5054 15 -1 -10.4935 90.4799 TC 19 1005 -10.5000 90.5000 1 15 -10.4867 90.5054 TC 15 2 236
1966326S10091 1967 112 SI WA BERYL 1966-11-22 18:00:00 TS -10.4424 90.5977 main 1338 1338 O________OP_O_ jtwc_sh SH031967 -10.6000 90.4000 15 -1 -10.6000 90.4000 TC 20 1005 -10.6074 90.4084 1 15 -10.6000 90.4000 TC 15 4 234
1966326S10091 1967 112 SI WA BERYL 1966-11-22 21:00:00 TS -10.5975 90.3829 main 1370 1370 P________PP_P_ SH031967 -10.8000 90.2650 15 -1 -10.7984 90.2631 TC 20 1004 -10.7876 90.2522 1 15 -10.8000 90.2650 TC 15 5 234
1966326S10091 1967 112 SI WA BERYL 1966-11-23 00:00:00 TS -10.7614 90.1516 main 1401 1409 O________OP_O_ jtwc_sh SH031967 -11.0000 90.1000 15 -1 -11.0000 90.1000 TC 20 1004 -10.9740 90.0734 1 15 -11.0000 90.1000 TC 15 6 237
1966326S10091 1967 112 SI MM BERYL 1966-11-23 03:00:00 TS -10.9079 89.8934 main 1432 1432 P________PP_P_ SH031967 -11.1650 89.8650 15 -1 -11.1630 89.9155 TC 20 1004 -11.1480 89.8721 1 15 -11.1650 89.8650 TC 17 6 240
1966326S10091 1967 112 SI MM BERYL 1966-11-23 04:00:00 TS -10.9607 89.8004 main 1448 1448 P________PO_P_ SH031967 -11.2133 89.7775 15 -1 -11.2112 89.8472 TC 20 1004 -11.2000 89.8000 1 15 -11.2133 89.7775 TC 18 6 240
1966326S10091 1967 112 SI MM BERYL 1966-11-23 06:00:00 TS -11.0601 89.6188 main 1471 1471 O________OP_O_ jtwc_sh SH031967 -11.3000 89.6000 15 -1 -11.3000 89.7000 TC 20 1004 -11.2812 89.6504 1 17 -11.3000 89.6000 TC 20 6 241
1966326S10091 1967 112 SI MM BERYL 1966-11-23 09:00:00 TS -11.1942 89.3659 main 1494 1494 P________PP_P_ SH031967 -11.4075 89.3500 20 -1 -11.4188 89.4484 TC 20 1004 -11.3840 89.4071 1 21 -11.4075 89.3500 TC 25 6 242
1966326S10091 1967 112 SI MM BERYL 1966-11-23 12:00:00 TS -11.3301 89.1047 main 1525 1525 O________PP_O_ jtwc_sh SH031967 -11.5000 89.1000 25 -1 -11.5188 89.1687 TC 20 1004 -11.4751 89.1495 1 25 -11.5000 89.1000 TC 30 6 242
1966326S10091 1967 112 SI MM BERYL 1966-11-23 15:00:00 TS -11.4904 88.8048 main 1565 1565 P________PP_P_ SH031967 -11.6000 88.8500 27 -1 -11.6094 88.8796 TC 20 1004 -11.5670 88.8870 1 28 -11.6000 88.8500 TC 32 7 241
1966326S10091 1967 112 SI MM BERYL 1966-11-23 16:00:00 TS -11.5465 88.7004 main 1572 1572 P________PO_P_ SH031967 -11.6333 88.7666 28 -1 -11.6391 88.7845 TC 20 1004 -11.6000 88.8000 1 30 -11.6333 88.7666 TC 33 7 241
1966326S10091 1967 112 SI MM BERYL 1966-11-23 18:00:00 TS -11.6597 88.4917 main 1604 1604 O________OP_O_ jtwc_sh SH031967 -11.7000 88.6000 30 -1 -11.7000 88.6000 TC 20 1004 -11.6776 88.6333 1 27 -11.7000 88.6000 TC 35 998 7 242
1966326S10091 1967 112 SI MM BERYL 1966-11-23 21:00:00 TS -11.8241 88.1677 main 1635 1643 P________PP_P_ SH031967 -11.7925 88.3500 25 -1 -11.7960 88.3471 TC 20 1004 -11.8003 88.3833 1 23 -11.7925 88.3500 TC 32 7 242
1966326S10091 1967 112 SI MM BERYL 1966-11-24 00:00:00 TS -11.9867 87.8665 main 1674 1674 O________OP_O_ jtwc_sh SH031967 -11.9000 88.1000 20 -1 -11.9000 88.1000 TC 20 1004 -11.9278 88.1333 1 19 -11.9000 88.1000 TC 30 6 239
1966326S10091 1967 112 SI MM BERYL 1966-11-24 03:00:00 TS -12.1524 87.6187 main 1713 1713 P________PP_P_ SH031967 -12.0500 87.8500 17 -1 -12.0333 87.8501 TC -12.0571 87.8833 1 16 -12.0500 87.8500 TC 27 6 235
1966326S10091 1967 112 SI MM BERYL 1966-11-24 04:00:00 TS -12.2062 87.5450 main 1722 1722 P________PO_P_ SH031967 -12.1024 87.7667 16 -1 -12.0827 87.7668 TC -12.1000 87.8000 1 15 -12.1024 87.7667 TC 26 5 234
1966326S10091 1967 112 SI MM BERYL 1966-11-24 06:00:00 TS -12.3084 87.4042 main 1737 1737 O________PP_O_ jtwc_sh SH031967 -12.2000 87.6000 15 -1 -12.1866 87.6001 TC -12.1807 87.6333 1 15 -12.2000 87.6000 TC 25 5 235
1966326S10091 1967 112 SI MM BERYL 1966-11-24 09:00:00 TS -12.4421 87.2039 main 1761 1761 P________PP_P_ SH031967 -12.3000 87.3499 15 -1 -12.3499 87.3502 TC -12.3016 87.3832 1 15 -12.3000 87.3499 TC 22 5 236
1966326S10091 1967 112 SI MM BERYL 1966-11-24 12:00:00 TS -12.5719 87.0072 main 1792 1792 O________PP_O_ jtwc_sh SH031967 -12.4000 87.1000 15 -1 -12.5133 87.1001 TC -12.4254 87.1332 1 15 -12.4000 87.1000 TC 20 5 235
1966326S10091 1967 112 SI MM BERYL 1966-11-24 15:00:00 TS -12.7177 86.7958 main 1816 1816 P________PP_P_ SH031967 -12.5500 86.8500 15 -1 -12.6666 86.8501 TC -12.5550 86.8833 1 15 -12.5500 86.8500 TC 17 5 235
1966326S10091 1967 112 SI MM BERYL 1966-11-24 16:00:00 TS -12.7668 86.7236 main 1831 1831 P________PO_P_ SH031967 -12.6024 86.7667 15 -1 -12.7138 86.7667 TC -12.6000 86.8000 1 15 -12.6024 86.7667 TC 16 5 236
1966326S10091 1967 112 SI MM BERYL 1966-11-24 18:00:00 TS -12.8605 86.5792 main 1847 1847 O________OP_O_ jtwc_sh SH031967 -12.7000 86.6000 15 -1 -12.8000 86.6000 TC 25 1003 -12.6837 86.6332 1 15 -12.7000 86.6000 TC 15 5 239
1966326S10091 1967 112 SI MM BERYL 1966-11-24 21:00:00 TS -12.9759 86.3638 main 1870 1870 P________PP_P_ SH031967 -12.7850 86.3499 17 -1 -12.8867 86.3499 TC 25 1002 -12.8155 86.3831 1 17 -12.7850 86.3499 TC 17 5 239
1966326S10091 1967 112 SI MM BERYL 1966-11-25 00:00:00 TS -13.1079 86.1498 main 1902 1902 O________OP_O_ jtwc_sh SH031967 -12.9000 86.1000 20 -1 -13.0000 86.1000 TC 25 1002 -12.9629 86.1331 1 18 -12.9000 86.1000 TC 20 5 233
1966326S10091 1967 112 SI MM BERYL 1966-11-25 03:00:00 TS -13.2936 85.9329 main 1933 1933 P________PP_P_ SH031967 -13.1275 85.8500 20 -1 -13.1812 85.8500 TC 25 1002 -13.1353 85.8832 1 19 -13.1275 85.8500 TC 20 6 228
1966326S10091 1967 112 SI MM BERYL 1966-11-25 04:00:00 TS -13.3629 85.8607 main 1941 1941 P________PO_P_ SH031967 -13.2170 85.7667 20 -1 -13.2518 85.7666 TC 25 1002 -13.2000 85.8000 1 20 -13.2170 85.7667 TC 20 6 225
1966326S10091 1967 112 SI MM BERYL 1966-11-25 06:00:00 TS -13.5055 85.7167 main 1964 1964 O________OP_O_ jtwc_sh SH031967 -13.4000 85.6000 20 -1 -13.4000 85.6000 TC 25 1002 -13.3438 85.6333 1 19 -13.4000 85.6000 TC 20 6 225
1966326S10091 1967 112 SI MM BERYL 1966-11-25 09:00:00 TS -13.7108 85.5037 main 1995 1995 P________PP_P_ SH031967 -13.6500 85.3499 17 -1 -13.6015 85.3499 TC 25 1002 -13.5847 85.3833 1 17 -13.6500 85.3499 TC 17 6 225
1966326S10091 1967 112 SI MM BERYL 1966-11-25 12:00:00 TS -13.9197 85.2916 main 2026 2026 O________PP_O_ jtwc_sh SH031967 -13.9000 85.1000 15 -1 -13.8124 85.0998 TC 25 1002 -13.8449 85.1333 1 16 -13.9000 85.1000 TC 15 6 224
1966326S10091 1967 112 SI MM BERYL 1966-11-25 15:00:00 TS -14.1317 85.0814 main 2057 2057 P________PP_P_ SH031967 -14.1500 84.8499 15 -1 -14.0421 84.8498 TC 25 1002 -14.1117 84.8833 1 15 -14.1500 84.8499 TC 15 6 224
1966326S10091 1967 112 SI MM BERYL 1966-11-25 16:00:00 TS -14.2030 85.0106 main 2073 2073 P________PO_P_ SH031967 -14.2333 84.7666 15 -1 -14.1245 84.7665 TC 25 1002 -14.2000 84.8000 1 15 -14.2333 84.7666 TC 15 6 224
1966326S10091 1967 112 SI MM BERYL 1966-11-25 18:00:00 TS -14.3458 84.8670 main 2088 2096 O________OP_O_ jtwc_sh SH031967 -14.4000 84.6000 15 -1 -14.3000 84.6000 TC 25 1002 -14.3666 84.6358 1 -14.4000 84.6000 TC 15 6 225
1966326S10091 1967 112 SI MM BERYL 1966-11-25 21:00:00 TS -14.5525 84.6522 main 2127 2135 P________PP_P_ SH031967 -14.6500 84.3499 15 -1 -14.6008 84.3500 TC 27 1001 -14.6165 84.3897 1 -14.6500 84.3499 TC 15 6 225
1966326S10091 1967 112 SI MM BERYL 1966-11-26 00:00:00 TS -14.7748 84.4206 main 2166 2166 O________OP_O_ jtwc_sh SH031967 -14.9000 84.1000 15 -1 -14.9000 84.1000 TC 30 1001 -14.8665 84.1410 1 -14.9000 84.1000 TC 15 7 225
1966326S10091 1967 112 SI MM BERYL 1966-11-26 03:00:00 TS -15.0293 84.1630 main 2196 2205 P________PP_P_ SH031967 -15.1500 83.8499 15 -1 -15.1581 83.8499 TC 30 1001 -15.1166 83.8866 1 -15.1500 83.8499 TC 15 7 224
1966326S10091 1967 112 SI MM BERYL 1966-11-26 04:00:00 TS -15.1202 84.0709 main 2212 2212 P________PO_P_ SH031967 -15.2333 83.7666 15 -1 -15.2394 83.7666 TC 30 1001 -15.2000 83.8000 7 -15.2333 83.7666 TC 15 8 225
1966326S10091 1967 112 SI MM BERYL 1966-11-26 06:00:00 TS -15.3083 83.8775 main 2243 2243 O________OP_O_ jtwc_sh SH031967 -15.4000 83.6000 15 -1 -15.4000 83.6000 TC 30 1001 -15.3666 83.6197 7 -15.4000 83.6000 TC 15 8 225
1966326S10091 1967 112 SI MM BERYL 1966-11-26 09:00:00 TS -15.6073 83.5638 main 2289 2297 P________PP_P_ SH031967 -15.6499 83.3574 15 -1 -15.6499 83.3499 TC 30 1000 -15.6166 83.3429 7 -15.6499 83.3574 TC 15 9 226
1966326S10091 1967 112 SI MM BERYL 1966-11-26 12:00:00 TS -15.9100 83.2369 main 2343 2343 O________PP_O_ jtwc_sh SH031967 -15.9000 83.1000 15 -1 -15.8999 83.0998 TC 30 1000 -15.8666 83.0640 7 -15.9000 83.1000 TC 15 9 227
1966326S10091 1967 112 SI MM BERYL 1966-11-26 15:00:00 TS -16.1974 82.9054 main 2390 2390 P________PP_P_ SH031967 -16.1500 82.7925 12 -1 -16.1499 82.8499 TC 30 999 -16.1167 82.7895 7 -16.1500 82.7925 TC 15 9 228
1966326S10091 1967 112 SI MM BERYL 1966-11-26 16:00:00 TS -16.2901 82.7994 main 2405 2405 P________PO_P_ SH031967 -16.2334 82.6896 11 -1 -16.2333 82.7666 TC 30 999 -16.2000 82.7000 7 -16.2334 82.6896 TC 15 8 227
1966326S10091 1967 112 SI MM BERYL 1966-11-26 18:00:00 TS -16.4708 82.6054 main 2436 2436 O________OP_O_ jtwc_sh SH031967 -16.4000 82.5000 10 -1 -16.4000 82.6000 TC 30 999 -16.3664 82.5430 7 -16.4000 82.5000 TC 15 7 223
1966326S10091 1967 112 SI MM BERYL 1966-11-26 21:00:00 TS -16.7379 82.3610 main 2467 2482 P________PP_P_ SH031967 -16.6499 82.2998 10 -1 -16.6499 82.3662 TC 32 998 -16.6161 82.3144 7 -16.6499 82.2998 TC 15 7 220
1966326S10091 1967 112 SI MM BERYL 1966-11-27 00:00:00 TS -16.9864 82.1468 main 2513 2513 O________OP_O_ jtwc_sh SH031967 -16.9000 82.1000 10 -1 -16.9000 82.1000 TC 35 998 -16.8661 82.0747 7 -16.9000 82.1000 TC 15 6 221
1966326S10091 1967 112 SI MM BERYL 1966-11-27 03:00:00 TS -17.2038 81.9409 main 2544 2544 P________PP_P_ SH031967 -17.1499 81.8374 10 -1 -17.1500 81.7711 TC 35 998 -17.1165 81.8020 7 -17.1499 81.8374 TC 15 6 222
1966326S10091 1967 112 SI MM BERYL 1966-11-27 04:00:00 TS -17.2722 81.8732 main 2551 2533 P________PO_P_ SH031967 -17.2332 81.7345 10 -1 -17.2333 81.6506 TC 35 998 -17.2000 81.7000 7 -17.2332 81.7345 TC 15 6 224
1966326S10091 1967 112 SI MM BERYL 1966-11-27 06:00:00 TS -17.4087 81.7331 main 2533 2508 O________OP_O_ jtwc_sh SH031967 -17.4000 81.5000 10 -1 -17.4000 81.4000 TC 35 998 -17.3694 81.4650 7 -17.4000 81.5000 TC 15 6 227
1966326S10091 1967 112 SI MM BERYL 1966-11-27 09:00:00 TS -17.5971 81.5087 main 2508 2483 P________PP_P_ SH031967 -17.6501 81.0575 10 -1 -17.6577 81.0182 TC 33 998 -17.6235 81.0746 7 -17.6501 81.0575 TC 15 6 226
1966326S10091 1967 112 SI MM BERYL 1966-11-27 12:00:00 TS -17.8188 81.2857 main 2483 2457 O________PP_O_ jtwc_sh SH031967 -17.9000 80.6000 10 -1 -17.9154 80.6177 TC 32 998 -17.8748 80.6580 7 -17.9000 80.6000 TC 15 7 217
1966326S10091 1967 112 SI MM BERYL 1966-11-27 15:00:00 TS -18.1259 81.0848 main 2457 2444 P________PP_P_ SH031967 -18.1573 80.2424 10 -1 -18.1654 80.2083 TC 31 998 -18.1201 80.2373 7 -18.1573 80.2424 TC 15 7 211
1966326S10091 1967 112 SI MM BERYL 1966-11-27 16:00:00 TS -18.2396 81.0180 main 2444 2429 P________PO_P_ SH031967 -18.2411 80.1302 10 -1 -18.2457 80.0716 TC 30 998 -18.2000 80.1000 7 -18.2411 80.1302 TC 15 8 209
1966326S10091 1967 112 SI MM BERYL 1966-11-27 18:00:00 TS -18.4707 80.8805 main 2429 2403 O________OP_O_ jtwc_sh SH031967 -18.4000 79.9000 10 -1 -18.4000 79.8000 TC 30 999 -18.3660 79.8442 7 -18.4000 79.9000 TC 15 8 210
1966326S10091 1967 112 SI MM BERYL 1966-11-27 21:00:00 TS -18.8182 80.6669 main 2403 2367 P________PP_P_ SH031967 -18.6075 79.4999 12 -1 -18.6074 79.3998 TC -18.6090 79.4669 7 -18.6075 79.4999 TC 15 8 213
1966326S10091 1967 112 SI MM BERYL 1966-11-28 00:00:00 TS -19.1439 80.4165 main 2367 2332 O________PP_O_ jtwc_sh SH031967 -18.8000 79.1000 15 -1 -18.7950 79.0021 TC -18.8367 79.0945 7 -18.8000 79.1000 TC 15 8 221
1966326S10091 1967 112 SI MM BERYL 1966-11-28 03:00:00 TS -19.4258 80.1152 main 2332 2320 P________PP_P_ SH031967 -19.0148 78.7500 15 -1 -18.9663 78.6093 TC -19.0395 78.7237 7 -19.0148 78.7500 TC 15 8 227
1966326S10091 1967 112 SI MM BERYL 1966-11-28 04:00:00 TS -19.5079 80.0003 main 2320 2287 P________PO_P_ SH031967 -19.0823 78.6358 15 -1 -19.0204 78.4798 TC -19.1000 78.6000 7 -19.0823 78.6358 TC 15 8 237
1966326S10091 1967 112 SI MM BERYL 1966-11-28 06:00:00 TS -19.6535 79.7463 main 2287 2244 O________PP_O_ jtwc_sh SH031967 -19.2000 78.4000 15 -1 -19.1247 78.2237 TC -19.2034 78.3470 7 -19.2000 78.4000 TC 15 9 244
1966326S10091 1967 112 SI MM BERYL 1966-11-28 09:00:00 TS -19.8216 79.3183 main 2244 2190 P________PP_P_ SH031967 -19.3075 77.9998 15 -1 -19.2738 77.8477 TC -19.3334 77.9677 7 -19.3075 77.9998 TC 15 9 250
1966326S10091 1967 112 SI MM BERYL 1966-11-28 12:00:00 TS -19.9657 78.8349 main 2190 2137 O________PP_O_ jtwc_sh SH031967 -19.4000 77.6000 15 -1 -19.4170 77.4835 TC -19.4470 77.5915 7 -19.4000 77.6000 TC 15 10 252
1966326S10091 1967 112 SI MM BERYL 1966-11-28 15:00:00 TS -20.1230 78.3168 main 2137 2126 P________PP_P_ SH031967 -19.5423 77.2499 15 -1 -19.5579 77.1335 TC -19.5598 77.2215 7 -19.5423 77.2499 TC 17 10 252
1966326S10091 1967 112 SI MM BERYL 1966-11-28 16:00:00 TS -20.1767 78.1388 main 2116 2084 P________PO_P_ SH031967 -19.5944 77.1357 15 -1 -19.6050 77.0204 TC -19.6000 77.1000 1 15 -19.5944 77.1357 TC 18 11 252
1966326S10091 1967 112 SI MM BERYL 1966-11-28 18:00:00 TS -20.2874 77.7810 main 2084 2020 O________OP_O_ jtwc_sh SH031967 -19.7000 76.9000 15 -1 -19.7000 76.8000 TC 25 1002 -19.6995 76.8479 1 15 -19.7000 76.9000 TC 20 11 252
1966326S10091 1967 112 SI MM BERYL 1966-11-28 21:00:00 TS -20.4574 77.2187 main 2020 1968 P________PP_P_ SH031967 -19.8500 76.4925 17 -1 -19.8614 76.4764 TC 23 1002 -19.8553 76.4758 1 17 -19.8500 76.4925 TC 20 11 251
1966326S10091 1967 112 SI MM BERYL 1966-11-29 00:00:00 TS -20.6292 76.7143 main 1968 1925 O________PP_O_ jtwc_sh SH031967 -20.0000 76.1000 20 -1 -20.0184 76.1689 TC 22 1003 -20.0104 76.1219 1 18 -20.0000 76.1000 TC 20 9 247
1966326S10091 1967 112 SI MM BERYL 1966-11-29 03:00:00 TS -20.8116 76.3455 main 1925 1925 P________PP_P_ SH031967 -20.1574 75.7775 20 -1 -20.1662 75.8769 TC 21 1004 -20.1555 75.7987 1 19 -20.1574 75.7775 TC 22 8 241
1966326S10091 1967 112 SI MM BERYL 1966-11-29 04:00:00 TS -20.8716 76.2476 main 1915 1904 P________PO_P_ SH031967 -20.2078 75.6812 20 -1 -20.2126 75.7829 TC 20 1004 -20.2000 75.7000 1 20 -20.2078 75.6812 TC 23 6 218
1966326S10091 1967 112 SI MM BERYL 1966-11-29 06:00:00 TS -21.0561 76.1369 main 1904 1893 O________OP_O_ jtwc_sh SH031967 -20.3000 75.5000 20 -1 -20.3000 75.6000 TC 20 1005 -20.2819 75.5177 1 20 -20.3000 75.5000 TC 25 6 207
1966326S10091 1967 112 SI MM BERYL 1966-11-29 09:00:00 TS -21.3050 76.0163 main 1893 1893 P________PP_P_ SH031967 -20.2348 75.1017 20 -1 -20.4166 75.3372 TC 18 1005 -20.3897 75.2762 1 20 -20.4101 75.2450 TC 6 192
1966326S10091 1967 112 SI MM BERYL 1966-11-29 12:00:00 TS -21.6231 76.0092 main 1894 1894 O________PP_O_ jtwc_sh SH031967 -20.5000 75.0000 20 -1 -20.5191 75.0855 TC 17 1005 -20.4845 75.0624 1 20 -20.5000 75.0000 TC 8 171
1966326S10091 1967 112 SI MM BERYL 1966-11-29 15:00:00 TS -22.1112 76.1506 main 1916 1917 P________PP___ SH031967 -21.7517 75.6933 -1 -20.6120 74.8410 TC 16 1005 -20.5717 74.8645 1 20 TC 12 162
1966326S10091 1967 112 SI MM BERYL 1966-11-29 16:00:00 TS -22.3644 76.2703 main 1928 1928 P________PO___ SH031967 -22.2250 75.9746 -1 -20.6416 74.7604 TC 15 1005 -20.6000 74.8000 1 20 TC 13 161
1966326S10091 1967 112 SI MM BERYL 1966-11-29 18:00:00 TS -22.7308 76.3846 main 1941 1933 O________O____ jtwc_sh SH041967 -23.0000 76.4000 -1 -20.7000 74.6000 TC 15 1006 1 8 174
1966326S10091 1967 112 SI MM BERYL 1966-11-29 21:00:00 TS -23.0253 76.3447 main 1933 1914 P_____________ SH041967 -23.2719 76.3243 -1 TC 1 5 214
1966326S10091 1967 112 SI MM BERYL 1966-11-30 00:00:00 TS -23.1313 76.0924 main 1914 1875 O_____________ jtwc_sh SH041967 -23.2000 75.9000 -1 TC 1 6 249
1966326S10091 1967 112 SI MM BERYL 1966-11-30 03:00:00 TS -23.2398 75.7454 main 1875 1845 P_____________ SH041967 -23.3074 75.5025 -1 TC 1 7 254
1966326S10091 1967 112 SI MM BERYL 1966-11-30 06:00:00 TS -23.3200 75.3600 main 1845 1796 O_____________ jtwc_sh SH041967 -23.4000 75.0000 -1 7 260
1966326S10091 1967 112 SI MM BERYL 1966-11-30 09:00:00 TS -23.3729 74.9447 main 1796 1756 P_____________ SH041967 -23.4605 74.4200 -1 8 263
1966326S10091 1967 112 SI MM BERYL 1966-11-30 12:00:00 TS -23.4175 74.4949 main 1756 1746 O_____________ jtwc_sh SH041967 -23.5000 73.8000 -1 5 263
1966326S10091 1967 112 SI MM BERYL 1966-11-30 15:00:00 NR -23.4335 74.3927 main 1746 1687 ______________ SH041967 -1 6 263
1966326S10091 1967 112 SI MM BERYL 1966-11-30 18:00:00 NR -23.5000 73.8000 main 1687 ______________ -1 11 263

IBTrACS Databaseについて

本データベースは、米国NOAAが公開する1842年以降の世界の熱帯低気圧のベストトラックデータアーカイブInternational Best Track Archive for Climate Stewardship (IBTrACS)を、ウェブで閲覧しやすい形式に変換したものです。

最終更新日:2021-10-21